sensor_id;sensor_type;location;lat;lon;timestamp;pressure;altitude;pressure_sealevel;temperature;humidity
27202;BME280;14717;46.924;15.474;2024-01-15T00:02:07;96582.13;;;-2.69;100.00
27202;BME280;14717;46.924;15.474;2024-01-15T00:04:39;96579.53;;;-2.64;100.00
27202;BME280;14717;46.924;15.474;2024-01-15T00:07:06;96579.53;;;-2.64;100.00
27202;BME280;14717;46.924;15.474;2024-01-15T00:09:31;96580.34;;;-2.63;100.00
27202;BME280;14717;46.924;15.474;2024-01-15T00:11:57;96568.63;;;-2.69;100.00
27202;BME280;14717;46.924;15.474;2024-01-15T00:14:22;96561.66;;;-2.65;100.00
27202;BME280;14717;46.924;15.474;2024-01-15T00:16:48;96562.31;;;-2.58;100.00
27202;BME280;14717;46.924;15.474;2024-01-15T00:19:16;96559.63;;;-2.58;100.00
27202;BME280;14717;46.924;15.474;2024-01-15T00:21:41;96547.66;;;-2.78;100.00
27202;BME280;14717;46.924;15.474;2024-01-15T00:24:07;96542.97;;;-2.99;100.00
27202;BME280;14717;46.924;15.474;2024-01-15T00:26:33;96549.34;;;-2.89;100.00
27202;BME280;14717;46.924;15.474;2024-01-15T00:28:58;96544.03;;;-3.11;100.00
27202;BME280;14717;46.924;15.474;2024-01-15T00:31:24;96517.88;;;-3.11;100.00
27202;BME280;14717;46.924;15.474;2024-01-15T00:33:49;96512.19;;;-2.98;100.00
27202;BME280;14717;46.924;15.474;2024-01-15T00:36:14;96516.75;;;-2.98;100.00
27202;BME280;14717;46.924;15.474;2024-01-15T00:38:41;96512.00;;;-3.08;100.00
27202;BME280;14717;46.924;15.474;2024-01-15T00:41:07;96502.09;;;-3.02;100.00
27202;BME280;14717;46.924;15.474;2024-01-15T00:43:32;96499.91;;;-3.05;100.00
27202;BME280;14717;46.924;15.474;2024-01-15T00:45:58;96487.63;;;-2.97;100.00
27202;BME280;14717;46.924;15.474;2024-01-15T00:48:23;96495.69;;;-2.85;100.00
27202;BME280;14717;46.924;15.474;2024-01-15T00:50:49;96501.44;;;-3.09;100.00
27202;BME280;14717;46.924;15.474;2024-01-15T00:53:14;96499.34;;;-3.35;100.00
27202;BME280;14717;46.924;15.474;2024-01-15T00:55:39;96501.22;;;-3.47;100.00
27202;BME280;14717;46.924;15.474;2024-01-15T00:58:05;96508.53;;;-3.59;100.00
27202;BME280;14717;46.924;15.474;2024-01-15T01:00:30;96506.28;;;-3.50;100.00
27202;BME280;14717;46.924;15.474;2024-01-15T01:02:55;96499.22;;;-3.40;100.00
27202;BME280;14717;46.924;15.474;2024-01-15T01:05:21;96479.69;;;-3.31;100.00
27202;BME280;14717;46.924;15.474;2024-01-15T01:07:46;96486.69;;;-3.46;100.00
27202;BME280;14717;46.924;15.474;2024-01-15T01:10:12;96488.41;;;-3.68;100.00
27202;BME280;14717;46.924;15.474;2024-01-15T01:12:37;96489.13;;;-3.72;100.00
27202;BME280;14717;46.924;15.474;2024-01-15T01:15:03;96488.09;;;-3.82;100.00
27202;BME280;14717;46.924;15.474;2024-01-15T01:17:28;96482.16;;;-3.96;100.00
27202;BME280;14717;46.924;15.474;2024-01-15T01:19:53;96485.41;;;-3.82;100.00
27202;BME280;14717;46.924;15.474;2024-01-15T01:22:19;96481.19;;;-3.90;100.00
27202;BME280;14717;46.924;15.474;2024-01-15T01:24:44;96474.25;;;-3.75;100.00
27202;BME280;14717;46.924;15.474;2024-01-15T01:27:09;96471.84;;;-3.60;100.00
27202;BME280;14717;46.924;15.474;2024-01-15T01:29:35;96467.91;;;-3.41;100.00
27202;BME280;14717;46.924;15.474;2024-01-15T01:32:00;96463.38;;;-3.24;100.00
27202;BME280;14717;46.924;15.474;2024-01-15T01:34:25;96451.28;;;-3.22;100.00
27202;BME280;14717;46.924;15.474;2024-01-15T01:36:51;96435.63;;;-3.64;100.00
27202;BME280;14717;46.924;15.474;2024-01-15T01:39:16;96432.69;;;-3.62;100.00
27202;BME280;14717;46.924;15.474;2024-01-15T01:41:42;96438.88;;;-3.62;100.00
27202;BME280;14717;46.924;15.474;2024-01-15T01:44:08;96426.19;;;-3.50;100.00
27202;BME280;14717;46.924;15.474;2024-01-15T01:46:33;96432.31;;;-3.27;100.00
27202;BME280;14717;46.924;15.474;2024-01-15T01:49:04;96417.09;;;-3.16;100.00
27202;BME280;14717;46.924;15.474;2024-01-15T01:51:31;96417.91;;;-3.16;100.00
27202;BME280;14717;46.924;15.474;2024-01-15T01:53:58;96411.78;;;-3.11;100.00
27202;BME280;14717;46.924;15.474;2024-01-15T01:56:24;96411.88;;;-3.06;100.00
27202;BME280;14717;46.924;15.474;2024-01-15T01:58:49;96393.19;;;-3.24;100.00
27202;BME280;14717;46.924;15.474;2024-01-15T02:01:15;96378.00;;;-3.30;100.00
27202;BME280;14717;46.924;15.474;2024-01-15T02:03:41;96374.16;;;-3.18;100.00
27202;BME280;14717;46.924;15.474;2024-01-15T02:06:06;96355.34;;;-3.13;100.00
27202;BME280;14717;46.924;15.474;2024-01-15T02:08:32;96352.16;;;-3.26;100.00
27202;BME280;14717;46.924;15.474;2024-01-15T02:10:57;96337.94;;;-3.38;100.00
27202;BME280;14717;46.924;15.474;2024-01-15T02:13:23;96335.66;;;-3.30;100.00
27202;BME280;14717;46.924;15.474;2024-01-15T02:15:48;96335.16;;;-3.27;100.00
27202;BME280;14717;46.924;15.474;2024-01-15T02:18:14;96337.63;;;-3.25;100.00
27202;BME280;14717;46.924;15.474;2024-01-15T02:20:39;96334.41;;;-3.55;100.00
27202;BME280;14717;46.924;15.474;2024-01-15T02:23:12;96337.41;;;-3.68;100.00
27202;BME280;14717;46.924;15.474;2024-01-15T02:25:42;96344.25;;;-3.60;100.00
27202;BME280;14717;46.924;15.474;2024-01-15T02:28:12;96349.56;;;-3.65;100.00
27202;BME280;14717;46.924;15.474;2024-01-15T02:30:38;96351.91;;;-3.41;100.00
27202;BME280;14717;46.924;15.474;2024-01-15T02:33:04;96391.03;;;-3.55;100.00
27202;BME280;14717;46.924;15.474;2024-01-15T02:35:30;96385.97;;;-3.51;100.00
27202;BME280;14717;46.924;15.474;2024-01-15T02:37:55;96383.69;;;-3.43;100.00
27202;BME280;14717;46.924;15.474;2024-01-15T02:40:20;96392.81;;;-3.60;100.00
27202;BME280;14717;46.924;15.474;2024-01-15T02:42:46;96385.75;;;-3.50;100.00
27202;BME280;14717;46.924;15.474;2024-01-15T02:45:11;96379.75;;;-3.52;100.00
27202;BME280;14717;46.924;15.474;2024-01-15T02:47:36;96378.59;;;-3.56;100.00
27202;BME280;14717;46.924;15.474;2024-01-15T02:50:02;96375.81;;;-3.61;100.00
27202;BME280;14717;46.924;15.474;2024-01-15T02:52:27;96371.19;;;-3.77;100.00
27202;BME280;14717;46.924;15.474;2024-01-15T02:54:53;96369.38;;;-3.87;100.00
27202;BME280;14717;46.924;15.474;2024-01-15T02:57:18;96358.59;;;-3.87;100.00
27202;BME280;14717;46.924;15.474;2024-01-15T02:59:44;96347.09;;;-3.67;100.00
27202;BME280;14717;46.924;15.474;2024-01-15T03:02:09;96326.75;;;-3.74;100.00
27202;BME280;14717;46.924;15.474;2024-01-15T03:04:34;96313.25;;;-3.90;100.00
27202;BME280;14717;46.924;15.474;2024-01-15T03:07:00;96311.84;;;-3.93;100.00
27202;BME280;14717;46.924;15.474;2024-01-15T03:09:25;96313.16;;;-3.95;100.00
27202;BME280;14717;46.924;15.474;2024-01-15T03:11:50;96297.63;;;-3.88;100.00
27202;BME280;14717;46.924;15.474;2024-01-15T03:14:16;96304.88;;;-3.61;100.00
27202;BME280;14717;46.924;15.474;2024-01-15T03:16:41;96304.31;;;-3.47;100.00
27202;BME280;14717;46.924;15.474;2024-01-15T03:19:07;96305.47;;;-3.59;100.00
27202;BME280;14717;46.924;15.474;2024-01-15T03:21:32;96308.47;;;-3.56;100.00
27202;BME280;14717;46.924;15.474;2024-01-15T03:23:57;96300.81;;;-3.47;100.00
27202;BME280;14717;46.924;15.474;2024-01-15T03:26:23;96307.81;;;-3.63;100.00
27202;BME280;14717;46.924;15.474;2024-01-15T03:28:48;96304.53;;;-3.48;100.00
27202;BME280;14717;46.924;15.474;2024-01-15T03:31:13;96310.47;;;-3.35;100.00
27202;BME280;14717;46.924;15.474;2024-01-15T03:33:39;96306.03;;;-3.25;100.00
27202;BME280;14717;46.924;15.474;2024-01-15T03:36:05;96306.38;;;-3.21;100.00
27202;BME280;14717;46.924;15.474;2024-01-15T03:38:30;96307.69;;;-3.40;100.00
27202;BME280;14717;46.924;15.474;2024-01-15T03:40:55;96293.44;;;-3.36;100.00
27202;BME280;14717;46.924;15.474;2024-01-15T03:43:21;96304.47;;;-3.37;100.00
27202;BME280;14717;46.924;15.474;2024-01-15T03:45:46;96313.06;;;-3.24;100.00
27202;BME280;14717;46.924;15.474;2024-01-15T03:48:11;96309.16;;;-3.16;100.00
27202;BME280;14717;46.924;15.474;2024-01-15T03:50:37;96304.38;;;-3.09;100.00
27202;BME280;14717;46.924;15.474;2024-01-15T03:53:02;96299.84;;;-3.09;100.00
27202;BME280;14717;46.924;15.474;2024-01-15T03:55:27;96306.03;;;-3.08;100.00
27202;BME280;14717;46.924;15.474;2024-01-15T03:57:53;96301.59;;;-2.98;100.00
27202;BME280;14717;46.924;15.474;2024-01-15T04:00:18;96295.47;;;-2.94;100.00
27202;BME280;14717;46.924;15.474;2024-01-15T04:02:44;96290.06;;;-2.94;100.00
27202;BME280;14717;46.924;15.474;2024-01-15T04:05:10;96286.22;;;-2.97;100.00
27202;BME280;14717;46.924;15.474;2024-01-15T04:07:35;96274.47;;;-3.08;100.00
27202;BME280;14717;46.924;15.474;2024-01-15T04:10:00;96265.88;;;-3.05;100.00
27202;BME280;14717;46.924;15.474;2024-01-15T04:12:26;96270.56;;;-3.17;100.00
27202;BME280;14717;46.924;15.474;2024-01-15T04:14:51;96267.19;;;-3.24;100.00
27202;BME280;14717;46.924;15.474;2024-01-15T04:17:16;96274.97;;;-3.27;100.00
27202;BME280;14717;46.924;15.474;2024-01-15T04:19:45;96276.75;;;-3.16;100.00
27202;BME280;14717;46.924;15.474;2024-01-15T04:22:13;96280.94;;;-3.25;100.00
27202;BME280;14717;46.924;15.474;2024-01-15T04:24:38;96284.38;;;-3.13;100.00
27202;BME280;14717;46.924;15.474;2024-01-15T04:27:04;96293.34;;;-3.24;100.00
27202;BME280;14717;46.924;15.474;2024-01-15T04:29:29;96284.28;;;-3.18;100.00
27202;BME280;14717;46.924;15.474;2024-01-15T04:31:55;96281.75;;;-3.08;100.00
27202;BME280;14717;46.924;15.474;2024-01-15T04:34:20;96270.56;;;-3.17;100.00
27202;BME280;14717;46.924;15.474;2024-01-15T04:36:45;96269.72;;;-3.17;100.00
27202;BME280;14717;46.924;15.474;2024-01-15T04:39:11;96259.44;;;-3.37;100.00
27202;BME280;14717;46.924;15.474;2024-01-15T04:41:37;96268.91;;;-3.50;100.00
27202;BME280;14717;46.924;15.474;2024-01-15T04:44:02;96274.06;;;-3.49;100.00
27202;BME280;14717;46.924;15.474;2024-01-15T04:46:28;96279.31;;;-3.42;100.00
27202;BME280;14717;46.924;15.474;2024-01-15T04:48:53;96286.09;;;-3.40;100.00
27202;BME280;14717;46.924;15.474;2024-01-15T04:51:19;96283.97;;;-3.38;100.00
27202;BME280;14717;46.924;15.474;2024-01-15T04:53:44;96284.94;;;-3.44;100.00
27202;BME280;14717;46.924;15.474;2024-01-15T04:56:10;96288.38;;;-3.48;100.00
27202;BME280;14717;46.924;15.474;2024-01-15T04:58:35;96278.25;;;-3.58;100.00
27202;BME280;14717;46.924;15.474;2024-01-15T05:01:00;96290.16;;;-3.54;100.00
27202;BME280;14717;46.924;15.474;2024-01-15T05:03:26;96277.41;;;-3.42;100.00
27202;BME280;14717;46.924;15.474;2024-01-15T05:05:51;96290.25;;;-3.49;100.00
27202;BME280;14717;46.924;15.474;2024-01-15T05:08:16;96292.94;;;-3.49;100.00
27202;BME280;14717;46.924;15.474;2024-01-15T05:10:42;96272.84;;;-3.58;100.00
27202;BME280;14717;46.924;15.474;2024-01-15T05:13:07;96297.69;;;-3.56;100.00
27202;BME280;14717;46.924;15.474;2024-01-15T05:15:32;96287.47;;;-3.54;100.00
27202;BME280;14717;46.924;15.474;2024-01-15T05:17:58;96294.75;;;-3.54;100.00
27202;BME280;14717;46.924;15.474;2024-01-15T05:20:23;96294.34;;;-3.46;100.00
27202;BME280;14717;46.924;15.474;2024-01-15T05:22:49;96297.06;;;-3.46;100.00
27202;BME280;14717;46.924;15.474;2024-01-15T05:25:14;96304.22;;;-3.52;100.00
27202;BME280;14717;46.924;15.474;2024-01-15T05:27:39;96312.31;;;-3.52;100.00
27202;BME280;14717;46.924;15.474;2024-01-15T05:30:05;96296.06;;;-3.40;100.00
27202;BME280;14717;46.924;15.474;2024-01-15T05:32:31;96296.22;;;-3.47;100.00
27202;BME280;14717;46.924;15.474;2024-01-15T05:34:57;96298.03;;;-3.52;100.00
27202;BME280;14717;46.924;15.474;2024-01-15T05:37:22;96300.00;;;-3.48;100.00
27202;BME280;14717;46.924;15.474;2024-01-15T05:39:48;96293.03;;;-3.44;100.00
27202;BME280;14717;46.924;15.474;2024-01-15T05:42:13;96295.97;;;-3.45;100.00
27202;BME280;14717;46.924;15.474;2024-01-15T05:44:38;96291.97;;;-3.43;100.00
27202;BME280;14717;46.924;15.474;2024-01-15T05:47:04;96296.13;;;-3.52;100.00
27202;BME280;14717;46.924;15.474;2024-01-15T05:49:29;96306.91;;;-3.52;100.00
27202;BME280;14717;46.924;15.474;2024-01-15T05:51:55;96315.59;;;-3.66;100.00
27202;BME280;14717;46.924;15.474;2024-01-15T05:54:20;96306.75;;;-3.62;100.00
27202;BME280;14717;46.924;15.474;2024-01-15T05:56:46;96310.38;;;-3.56;100.00
27202;BME280;14717;46.924;15.474;2024-01-15T05:59:11;96312.38;;;-3.63;100.00
27202;BME280;14717;46.924;15.474;2024-01-15T06:01:37;96315.34;;;-3.65;100.00
27202;BME280;14717;46.924;15.474;2024-01-15T06:04:02;96316.47;;;-3.77;100.00
27202;BME280;14717;46.924;15.474;2024-01-15T06:06:27;96317.25;;;-3.77;100.00
27202;BME280;14717;46.924;15.474;2024-01-15T06:08:53;96321.47;;;-3.69;100.00
27202;BME280;14717;46.924;15.474;2024-01-15T06:11:18;96323.81;;;-3.73;100.00
27202;BME280;14717;46.924;15.474;2024-01-15T06:13:44;96317.97;;;-3.70;100.00
27202;BME280;14717;46.924;15.474;2024-01-15T06:16:15;96326.13;;;-3.65;100.00
27202;BME280;14717;46.924;15.474;2024-01-15T06:18:45;96311.97;;;-3.72;100.00
27202;BME280;14717;46.924;15.474;2024-01-15T06:21:10;96321.13;;;-3.73;100.00
27202;BME280;14717;46.924;15.474;2024-01-15T06:23:38;96324.44;;;-3.82;100.00
27202;BME280;14717;46.924;15.474;2024-01-15T06:26:03;96327.38;;;-3.83;100.00
27202;BME280;14717;46.924;15.474;2024-01-15T06:28:29;96317.78;;;-3.80;100.00
27202;BME280;14717;46.924;15.474;2024-01-15T06:30:54;96326.66;;;-3.79;100.00
27202;BME280;14717;46.924;15.474;2024-01-15T06:33:20;96323.63;;;-3.82;100.00
27202;BME280;14717;46.924;15.474;2024-01-15T06:35:45;96332.69;;;-3.88;100.00
27202;BME280;14717;46.924;15.474;2024-01-15T06:38:10;96343.31;;;-4.10;100.00
27202;BME280;14717;46.924;15.474;2024-01-15T06:40:36;96319.06;;;-4.10;100.00
27202;BME280;14717;46.924;15.474;2024-01-15T06:43:01;96327.97;;;-4.09;100.00
27202;BME280;14717;46.924;15.474;2024-01-15T06:45:26;96330.19;;;-4.06;100.00
27202;BME280;14717;46.924;15.474;2024-01-15T06:47:52;96341.28;;;-4.03;100.00
27202;BME280;14717;46.924;15.474;2024-01-15T06:50:17;96347.63;;;-3.97;100.00
27202;BME280;14717;46.924;15.474;2024-01-15T06:52:42;96354.44;;;-4.06;100.00
27202;BME280;14717;46.924;15.474;2024-01-15T06:55:08;96364.78;;;-4.15;100.00
27202;BME280;14717;46.924;15.474;2024-01-15T06:57:33;96349.69;;;-4.16;100.00
27202;BME280;14717;46.924;15.474;2024-01-15T06:59:58;96365.44;;;-4.08;100.00
27202;BME280;14717;46.924;15.474;2024-01-15T07:02:24;96360.28;;;-4.09;100.00
27202;BME280;14717;46.924;15.474;2024-01-15T07:04:49;96366.66;;;-4.15;100.00
27202;BME280;14717;46.924;15.474;2024-01-15T07:07:14;96381.50;;;-4.13;100.00
27202;BME280;14717;46.924;15.474;2024-01-15T07:09:40;96377.44;;;-4.15;100.00
27202;BME280;14717;46.924;15.474;2024-01-15T07:12:06;96383.63;;;-4.15;100.00
27202;BME280;14717;46.924;15.474;2024-01-15T07:14:31;96388.00;;;-4.25;100.00
27202;BME280;14717;46.924;15.474;2024-01-15T07:16:57;96394.31;;;-4.31;100.00
27202;BME280;14717;46.924;15.474;2024-01-15T07:19:22;96401.16;;;-4.40;100.00
27202;BME280;14717;46.924;15.474;2024-01-15T07:21:47;96398.34;;;-4.45;100.00
27202;BME280;14717;46.924;15.474;2024-01-15T07:24:13;96407.22;;;-4.44;100.00
27202;BME280;14717;46.924;15.474;2024-01-15T07:26:38;96404.66;;;-4.51;100.00
27202;BME280;14717;46.924;15.474;2024-01-15T07:29:04;96412.38;;;-4.43;100.00
27202;BME280;14717;46.924;15.474;2024-01-15T07:31:29;96406.19;;;-4.43;100.00
27202;BME280;14717;46.924;15.474;2024-01-15T07:33:55;96407.22;;;-4.33;100.00
27202;BME280;14717;46.924;15.474;2024-01-15T07:36:20;96413.16;;;-4.20;100.00
27202;BME280;14717;46.924;15.474;2024-01-15T07:38:45;96416.56;;;-4.24;100.00
27202;BME280;14717;46.924;15.474;2024-01-15T07:41:13;96409.56;;;-4.25;100.00
27202;BME280;14717;46.924;15.474;2024-01-15T07:43:38;96406.84;;;-4.14;100.00
27202;BME280;14717;46.924;15.474;2024-01-15T07:46:04;96419.34;;;-4.08;100.00
27202;BME280;14717;46.924;15.474;2024-01-15T07:48:29;96423.91;;;-3.97;100.00
27202;BME280;14717;46.924;15.474;2024-01-15T07:50:54;96424.53;;;-3.79;100.00
27202;BME280;14717;46.924;15.474;2024-01-15T07:53:20;96428.34;;;-3.63;100.00
27202;BME280;14717;46.924;15.474;2024-01-15T07:55:45;96416.94;;;-3.54;100.00
27202;BME280;14717;46.924;15.474;2024-01-15T07:58:11;96425.16;;;-3.60;100.00
27202;BME280;14717;46.924;15.474;2024-01-15T08:00:36;96426.81;;;-3.59;100.00
27202;BME280;14717;46.924;15.474;2024-01-15T08:03:02;96427.81;;;-3.49;100.00
27202;BME280;14717;46.924;15.474;2024-01-15T08:05:28;96423.00;;;-3.47;100.00
27202;BME280;14717;46.924;15.474;2024-01-15T08:07:53;96424.66;;;-3.46;100.00
27202;BME280;14717;46.924;15.474;2024-01-15T08:10:18;96422.63;;;-3.39;100.00
27202;BME280;14717;46.924;15.474;2024-01-15T08:12:44;96415.78;;;-3.30;100.00
27202;BME280;14717;46.924;15.474;2024-01-15T08:15:09;96415.13;;;-3.21;100.00
27202;BME280;14717;46.924;15.474;2024-01-15T08:17:35;96423.63;;;-3.12;100.00
27202;BME280;14717;46.924;15.474;2024-01-15T08:20:00;96430.84;;;-3.01;100.00
27202;BME280;14717;46.924;15.474;2024-01-15T08:22:26;96442.63;;;-3.07;100.00
27202;BME280;14717;46.924;15.474;2024-01-15T08:24:52;96440.53;;;-3.05;100.00
27202;BME280;14717;46.924;15.474;2024-01-15T08:27:17;96438.47;;;-2.98;100.00
27202;BME280;14717;46.924;15.474;2024-01-15T08:29:42;96429.97;;;-2.91;100.00
27202;BME280;14717;46.924;15.474;2024-01-15T08:32:08;96437.72;;;-2.78;100.00
27202;BME280;14717;46.924;15.474;2024-01-15T08:34:39;96440.03;;;-2.70;100.00
27202;BME280;14717;46.924;15.474;2024-01-15T08:37:04;96440.03;;;-2.70;100.00
27202;BME280;14717;46.924;15.474;2024-01-15T08:39:29;96431.84;;;-2.58;100.00
27202;BME280;14717;46.924;15.474;2024-01-15T08:41:55;96435.19;;;-2.52;100.00
27202;BME280;14717;46.924;15.474;2024-01-15T08:44:20;96439.84;;;-2.47;100.00
27202;BME280;14717;46.924;15.474;2024-01-15T08:46:45;96445.50;;;-2.32;100.00
27202;BME280;14717;46.924;15.474;2024-01-15T08:49:11;96444.59;;;-2.21;100.00
27202;BME280;14717;46.924;15.474;2024-01-15T08:51:36;96445.22;;;-2.14;100.00
27202;BME280;14717;46.924;15.474;2024-01-15T08:54:03;96451.97;;;-1.96;100.00
27202;BME280;14717;46.924;15.474;2024-01-15T08:56:28;96449.66;;;-1.87;100.00
27202;BME280;14717;46.924;15.474;2024-01-15T08:58:53;96447.09;;;-1.77;100.00
27202;BME280;14717;46.924;15.474;2024-01-15T09:01:19;96451.31;;;-1.65;100.00
27202;BME280;14717;46.924;15.474;2024-01-15T09:03:44;96438.94;;;-1.56;100.00
27202;BME280;14717;46.924;15.474;2024-01-15T09:06:10;96454.19;;;-1.50;100.00
27202;BME280;14717;46.924;15.474;2024-01-15T09:08:35;96437.44;;;-1.47;100.00
27202;BME280;14717;46.924;15.474;2024-01-15T09:11:01;96436.69;;;-1.43;100.00
27202;BME280;14717;46.924;15.474;2024-01-15T09:13:28;96441.00;;;-1.21;100.00
27202;BME280;14717;46.924;15.474;2024-01-15T09:15:53;96444.72;;;-1.00;100.00
27202;BME280;14717;46.924;15.474;2024-01-15T09:18:19;96437.38;;;-1.05;100.00
27202;BME280;14717;46.924;15.474;2024-01-15T09:20:44;96435.84;;;-0.96;100.00
27202;BME280;14717;46.924;15.474;2024-01-15T09:23:09;96435.63;;;-0.89;100.00
27202;BME280;14717;46.924;15.474;2024-01-15T09:25:35;96433.34;;;-0.71;100.00
27202;BME280;14717;46.924;15.474;2024-01-15T09:28:00;96432.13;;;-0.59;100.00
27202;BME280;14717;46.924;15.474;2024-01-15T09:30:25;96425.66;;;-0.53;100.00
27202;BME280;14717;46.924;15.474;2024-01-15T09:32:51;96420.22;;;-0.53;100.00
27202;BME280;14717;46.924;15.474;2024-01-15T09:35:16;96406.28;;;-0.35;100.00
27202;BME280;14717;46.924;15.474;2024-01-15T09:37:41;96406.63;;;-0.22;100.00
27202;BME280;14717;46.924;15.474;2024-01-15T09:40:08;96406.63;;;-0.22;100.00
27202;BME280;14717;46.924;15.474;2024-01-15T09:42:38;96396.94;;;-0.13;100.00
27202;BME280;14717;46.924;15.474;2024-01-15T09:45:04;96405.72;;;0.04;100.00
27202;BME280;14717;46.924;15.474;2024-01-15T09:47:30;96400.47;;;0.43;100.00
27202;BME280;14717;46.924;15.474;2024-01-15T09:49:55;96403.84;;;0.75;100.00
27202;BME280;14717;46.924;15.474;2024-01-15T09:52:25;96409.28;;;0.85;100.00
27202;BME280;14717;46.924;15.474;2024-01-15T09:54:50;96391.97;;;1.11;100.00
27202;BME280;14717;46.924;15.474;2024-01-15T09:57:16;96402.84;;;1.16;100.00
27202;BME280;14717;46.924;15.474;2024-01-15T09:59:43;96396.03;;;1.28;100.00
27202;BME280;14717;46.924;15.474;2024-01-15T10:02:09;96393.06;;;1.44;100.00
27202;BME280;14717;46.924;15.474;2024-01-15T10:04:39;96380.56;;;1.53;100.00
27202;BME280;14717;46.924;15.474;2024-01-15T10:07:05;96383.81;;;1.45;100.00
27202;BME280;14717;46.924;15.474;2024-01-15T10:09:32;96376.47;;;1.36;100.00
27202;BME280;14717;46.924;15.474;2024-01-15T10:11:57;96369.97;;;1.32;100.00
27202;BME280;14717;46.924;15.474;2024-01-15T10:14:23;96364.25;;;1.38;100.00
27202;BME280;14717;46.924;15.474;2024-01-15T10:16:48;96356.63;;;1.35;100.00
27202;BME280;14717;46.924;15.474;2024-01-15T10:19:13;96352.84;;;1.46;100.00
27202;BME280;14717;46.924;15.474;2024-01-15T10:21:39;96354.13;;;1.73;100.00
27202;BME280;14717;46.924;15.474;2024-01-15T10:24:04;96353.25;;;2.08;100.00
27202;BME280;14717;46.924;15.474;2024-01-15T10:26:31;96348.25;;;2.29;100.00
27202;BME280;14717;46.924;15.474;2024-01-15T10:28:58;96349.28;;;2.53;100.00
27202;BME280;14717;46.924;15.474;2024-01-15T10:31:23;96338.31;;;2.63;98.46
27202;BME280;14717;46.924;15.474;2024-01-15T10:33:50;96340.66;;;2.79;98.19
27202;BME280;14717;46.924;15.474;2024-01-15T10:36:16;96341.97;;;2.87;96.24
27202;BME280;14717;46.924;15.474;2024-01-15T10:38:45;96332.69;;;2.93;94.93
27202;BME280;14717;46.924;15.474;2024-01-15T10:41:11;96341.59;;;3.03;94.13
27202;BME280;14717;46.924;15.474;2024-01-15T10:43:37;96337.78;;;2.99;93.81
27202;BME280;14717;46.924;15.474;2024-01-15T10:46:02;96337.19;;;3.07;94.23
27202;BME280;14717;46.924;15.474;2024-01-15T10:48:28;96326.41;;;3.25;92.57
27202;BME280;14717;46.924;15.474;2024-01-15T10:50:56;96321.72;;;3.36;91.01
27202;BME280;14717;46.924;15.474;2024-01-15T10:53:22;96325.94;;;3.18;91.84
27202;BME280;14717;46.924;15.474;2024-01-15T10:55:48;96322.84;;;2.96;96.27
27202;BME280;14717;46.924;15.474;2024-01-15T10:58:15;96304.38;;;2.84;95.13
27202;BME280;14717;46.924;15.474;2024-01-15T11:00:42;96318.25;;;2.87;95.25
27202;BME280;14717;46.924;15.474;2024-01-15T11:03:09;96308.69;;;2.95;94.55
27202;BME280;14717;46.924;15.474;2024-01-15T11:05:44;96309.16;;;3.01;91.90
27202;BME280;14717;46.924;15.474;2024-01-15T11:08:10;96300.38;;;3.09;90.38
27202;BME280;14717;46.924;15.474;2024-01-15T11:10:45;96300.47;;;3.33;89.37
27202;BME280;14717;46.924;15.474;2024-01-15T11:13:15;96297.94;;;3.41;87.32
27202;BME280;14717;46.924;15.474;2024-01-15T11:18:22;96287.53;;;3.71;84.68
27202;BME280;14717;46.924;15.474;2024-01-15T11:23:55;96289.03;;;3.59;84.45
27202;BME280;14717;46.924;15.474;2024-01-15T11:34:07;96274.31;;;4.29;86.51
27202;BME280;14717;46.924;15.474;2024-01-15T11:41:59;96271.38;;;4.63;77.15
27202;BME280;14717;46.924;15.474;2024-01-15T11:44:26;96262.97;;;4.77;73.25
27202;BME280;14717;46.924;15.474;2024-01-15T11:47:03;96267.06;;;4.80;75.14
27202;BME280;14717;46.924;15.474;2024-01-15T11:52:16;96256.53;;;5.05;71.50
27202;BME280;14717;46.924;15.474;2024-01-15T11:54:48;96248.16;;;5.15;69.26
27202;BME280;14717;46.924;15.474;2024-01-15T11:57:20;96254.06;;;5.22;67.81
27202;BME280;14717;46.924;15.474;2024-01-15T11:59:47;96247.41;;;5.28;67.25
27202;BME280;14717;46.924;15.474;2024-01-15T12:02:13;96251.66;;;5.34;66.61
27202;BME280;14717;46.924;15.474;2024-01-15T12:04:39;96240.50;;;5.30;67.45
27202;BME280;14717;46.924;15.474;2024-01-15T12:07:05;96242.94;;;5.32;66.96
27202;BME280;14717;46.924;15.474;2024-01-15T12:09:30;96235.88;;;5.31;67.12
27202;BME280;14717;46.924;15.474;2024-01-15T12:12:02;96234.34;;;5.38;66.03
27202;BME280;14717;46.924;15.474;2024-01-15T12:14:31;96234.84;;;5.40;65.85
27202;BME280;14717;46.924;15.474;2024-01-15T12:16:57;96234.44;;;5.33;67.90
27202;BME280;14717;46.924;15.474;2024-01-15T12:19:22;96231.41;;;5.35;66.81
27202;BME280;14717;46.924;15.474;2024-01-15T12:21:48;96237.19;;;5.47;67.27
27202;BME280;14717;46.924;15.474;2024-01-15T12:24:17;96228.09;;;5.51;66.03
27202;BME280;14717;46.924;15.474;2024-01-15T12:26:42;96227.22;;;5.55;66.46
27202;BME280;14717;46.924;15.474;2024-01-15T12:29:07;96222.44;;;5.61;65.82
27202;BME280;14717;46.924;15.474;2024-01-15T12:31:33;96219.69;;;5.61;66.25
27202;BME280;14717;46.924;15.474;2024-01-15T12:34:01;96215.03;;;5.61;67.24
27202;BME280;14717;46.924;15.474;2024-01-15T12:36:26;96220.00;;;5.59;66.88
27202;BME280;14717;46.924;15.474;2024-01-15T12:38:52;96213.31;;;5.65;66.83
27202;BME280;14717;46.924;15.474;2024-01-15T12:41:17;96214.63;;;5.68;66.18
27202;BME280;14717;46.924;15.474;2024-01-15T12:43:43;96219.91;;;5.64;65.42
27202;BME280;14717;46.924;15.474;2024-01-15T12:46:08;96204.94;;;5.75;65.89
27202;BME280;14717;46.924;15.474;2024-01-15T12:48:34;96204.72;;;5.72;64.77
27202;BME280;14717;46.924;15.474;2024-01-15T12:51:00;96206.72;;;5.66;64.43
27202;BME280;14717;46.924;15.474;2024-01-15T12:53:26;96207.50;;;5.53;64.89
27202;BME280;14717;46.924;15.474;2024-01-15T12:55:51;96203.59;;;5.73;63.99
27202;BME280;14717;46.924;15.474;2024-01-15T12:58:17;96204.72;;;5.72;62.46